Terminal Aerodrome Forecast
Issued by NWS

Home | Current Version | Previous Version | Text Only | Print | Product List | Glossary On
Versions: 1 2 3 4 5 6 7 8 9 10 11 12 13 14 15 16 17 18 19
000
FTUS45 KGJT 282340 AAB
TAFRIL
TAF AMD
KRIL 282340Z 2900/2924 30008KT P6SM VCTS SCT080CB BKN110
      TEMPO 2900/2903 VRB12G20KT P6SM -TSRA BKN070CB OVC100
     FM290300 13006KT P6SM SCT110
     FM291100 VRB03KT P6SM SCT150
     FM292000 05006KT P6SM SCT150=

USA.gov is the U.S. government's official web portal to all federal, state and local government web resources and services.